Hauptseite
METAR-TAF:

METAR-TAF

Flughäfen :

Rouen, Frankreich

Flughafen Rouen

Breite: 49-23N, Länge: 001-11E, Höhe: 157 m

Beobachtung

Neuester Wetterbericht von vor 16 Minuten, um 19:00 UTC
Wind 12 kt aus Nordost
Temperatur -1°C
Luftfeuchtigkeit 54%
Luftdruck 1024 hPa
Sichtweite 10 km oder mehr
keine Wolken unter 1500 m und keine Kumulonimbus oder Gewitterwolken

METAR: LFOP 251900Z AUTO 05012KT CAVOK M01/M09 Q1024 NOSIG

Zeit: 20:16 (19:16 UTC)

Prognose

Neuester Wetterbericht von vor 2 Stunden und 16 Minuten, um 17:00 UTC
Gültige Prognose vom 25 um 18 UTC bis 26 um 18 UTC
Wind 14 kt aus Ost/Nordost
Sichtweite 10 km oder mehr
keine Wolken unter 1500 m und keine Kumulonimbus oder Gewitterwolken

TAF: LFOP 251700Z 2518/2618 06014KT CAVOK

Wetterbeobachtungen und Prognosen von mehr als 4000 Flughäfen (METAR und TAF Bericht).

Die verfügbaren Stationen werden durch gelbe und rote Markierungen auf der Karte dargestellt.

Führen Sie die Maus auf sie, um den Namen der Station zu sehen.

Darauf klicken, um die Beobachtung von Wetterbeobachtungen und Prognosen zu sehen.

Um die Karte zu ändern : klicken Sie auf den grünen Tasten mit einem schwarzen Kreuz Zum Vergrößern, auf den grünen Button mit einem Gedankenstrich zu verkleinern, oder auf die grünen Pfeile für benachbarte Karten.


METAR-TAF: